createdAt,value
2019-06-25T00:01:53.082Z,19.50
2019-06-25T00:04:24.345Z,19.50
2019-06-25T00:06:59.218Z,19.50
2019-06-25T00:09:28.989Z,19.40
2019-06-25T00:11:57.705Z,19.40
2019-06-25T00:14:26.099Z,19.40
2019-06-25T00:16:56.913Z,19.40
2019-06-25T00:19:27.046Z,19.40
2019-06-25T00:21:55.755Z,19.50
2019-06-25T00:24:27.010Z,19.50
2019-06-25T00:26:56.347Z,19.50
2019-06-25T00:29:30.650Z,19.50
2019-06-25T00:32:00.819Z,19.50
2019-06-25T00:34:29.202Z,19.50
2019-06-25T00:36:57.668Z,19.40
2019-06-25T00:39:31.520Z,19.30
2019-06-25T00:42:01.458Z,19.30
2019-06-25T00:44:29.838Z,19.20
2019-06-25T00:46:58.235Z,19.20
2019-06-25T00:49:26.637Z,19.20
2019-06-25T00:51:58.323Z,19.20
2019-06-25T00:54:26.721Z,19.10
2019-06-25T00:56:57.774Z,19.10
2019-06-25T00:59:30.858Z,19.00
2019-06-25T01:02:06.346Z,19.00
2019-06-25T01:04:36.393Z,19.00
2019-06-25T01:07:08.976Z,18.90
2019-06-25T01:09:37.979Z,18.90
2019-06-25T01:12:10.289Z,18.80
2019-06-25T01:14:40.395Z,18.70
2019-06-25T01:17:14.778Z,18.60
2019-06-25T01:19:43.165Z,18.60
2019-06-25T01:22:14.933Z,18.50
2019-06-25T01:24:47.617Z,18.50
2019-06-25T01:27:27.338Z,18.50
2019-06-25T01:29:47.182Z,18.40
2019-06-25T01:32:18.265Z,18.40
2019-06-25T01:34:50.483Z,18.40
2019-06-25T01:37:22.090Z,18.40
2019-06-25T01:39:53.426Z,18.40
2019-06-25T01:42:24.510Z,18.40
2019-06-25T01:44:55.542Z,18.40
2019-06-25T01:47:27.103Z,18.40
2019-06-25T01:49:58.150Z,18.40
2019-06-25T01:52:32.209Z,18.40
2019-06-25T01:55:05.766Z,18.40
2019-06-25T01:57:31.517Z,18.40
2019-06-25T02:00:06.135Z,18.30
2019-06-25T02:02:34.565Z,18.30
2019-06-25T02:05:05.555Z,18.30
2019-06-25T02:07:38.685Z,18.30
2019-06-25T02:10:14.888Z,18.30
2019-06-25T02:12:43.280Z,18.30
2019-06-25T02:15:14.759Z,18.30
2019-06-25T02:17:47.028Z,18.30
2019-06-25T02:20:20.741Z,18.30
2019-06-25T02:22:49.449Z,18.30
2019-06-25T02:25:20.217Z,18.30
2019-06-25T02:27:48.649Z,18.20
2019-06-25T02:30:20.573Z,18.20
2019-06-25T02:32:51.799Z,18.20
2019-06-25T02:35:22.990Z,18.20
2019-06-25T02:37:51.378Z,18.10
2019-06-25T02:40:20.620Z,18.10
2019-06-25T02:42:51.767Z,18.10
2019-06-25T02:45:21.691Z,18.10
2019-06-25T02:47:50.085Z,18.10
2019-06-25T02:50:20.034Z,18.10
2019-06-25T02:52:51.434Z,18.00
2019-06-25T02:55:20.059Z,18.00
2019-06-25T02:57:51.522Z,18.00
2019-06-25T03:00:23.664Z,17.90
2019-06-25T03:02:52.102Z,17.90
2019-06-25T03:05:23.879Z,17.90
2019-06-25T03:07:55.217Z,17.90
2019-06-25T03:10:26.348Z,17.90
2019-06-25T03:12:56.615Z,17.90
2019-06-25T03:15:32.306Z,17.90
2019-06-25T03:18:00.717Z,17.90
2019-06-25T03:20:30.625Z,17.90
2019-06-25T03:23:01.860Z,17.90
2019-06-25T03:25:36.057Z,18.00
2019-06-25T03:28:11.385Z,18.00
2019-06-25T03:30:41.081Z,18.00
2019-06-25T03:33:12.282Z,18.00
2019-06-25T03:35:43.356Z,18.10
2019-06-25T03:38:11.988Z,18.00
2019-06-25T03:40:41.933Z,18.00
2019-06-25T03:43:15.741Z,18.10
2019-06-25T03:45:44.128Z,18.10
2019-06-25T03:48:15.500Z,18.10
2019-06-25T03:50:43.945Z,18.10
2019-06-25T03:53:12.333Z,18.10
2019-06-25T03:55:43.436Z,18.20
2019-06-25T03:58:11.834Z,18.20
2019-06-25T04:00:43.411Z,18.20
2019-06-25T04:03:12.694Z,18.30
2019-06-25T04:05:47.144Z,18.30
2019-06-25T04:08:21.406Z,18.40
2019-06-25T04:10:53.192Z,18.50
2019-06-25T04:13:23.993Z,18.50
2019-06-25T04:15:52.679Z,18.60
2019-06-25T04:18:24.030Z,18.60
2019-06-25T04:20:52.464Z,18.70
2019-06-25T04:23:25.211Z,18.80
2019-06-25T04:25:54.837Z,18.90
2019-06-25T04:28:26.318Z,19.00
2019-06-25T04:30:57.609Z,19.10
2019-06-25T04:33:28.885Z,19.10
2019-06-25T04:36:02.883Z,19.20
2019-06-25T04:38:42.250Z,19.30
2019-06-25T04:41:14.107Z,19.40
2019-06-25T04:43:42.299Z,19.50
2019-06-25T04:46:11.625Z,20.00
2019-06-25T04:48:41.245Z,20.50
2019-06-25T04:51:15.309Z,21.10
2019-06-25T04:53:47.662Z,21.70
2019-06-25T04:56:18.536Z,22.20
2019-06-25T04:58:48.456Z,23.20
2019-06-25T05:01:16.822Z,24.20
2019-06-25T05:03:48.200Z,24.80
2019-06-25T05:06:16.578Z,25.00
2019-06-25T05:08:47.658Z,25.30
2019-06-25T05:11:21.730Z,25.50
2019-06-25T05:13:52.989Z,26.10
2019-06-25T05:16:27.587Z,26.50
2019-06-25T05:18:58.760Z,27.20
2019-06-25T05:21:28.495Z,27.40
2019-06-25T05:23:59.185Z,27.50
2019-06-25T05:26:34.698Z,27.60
2019-06-25T05:29:06.405Z,27.90
2019-06-25T05:31:34.797Z,28.70
2019-06-25T05:34:06.206Z,29.20
2019-06-25T05:36:45.321Z,30.00
2019-06-25T05:39:19.256Z,30.50
2019-06-25T05:41:50.043Z,30.50
2019-06-25T05:44:24.213Z,30.20
2019-06-25T05:46:52.641Z,29.90
2019-06-25T05:49:21.087Z,29.50
2019-06-25T05:51:52.581Z,29.20
2019-06-25T05:54:22.518Z,28.80
2019-06-25T05:56:53.893Z,28.60
2019-06-25T05:59:22.298Z,28.40
2019-06-25T06:01:50.681Z,28.80
2019-06-25T06:04:19.078Z,29.50
2019-06-25T06:06:56.122Z,30.30
2019-06-25T06:09:24.525Z,30.40
2019-06-25T06:11:55.620Z,30.70
2019-06-25T06:14:24.108Z,30.50
2019-06-25T06:16:58.362Z,30.20
2019-06-25T06:19:28.539Z,29.70
2019-06-25T06:21:58.418Z,29.40
2019-06-25T06:24:33.842Z,29.10
2019-06-25T06:27:04.980Z,29.20
2019-06-25T06:29:36.335Z,29.50
2019-06-25T06:32:06.937Z,29.90
2019-06-25T06:34:37.302Z,30.30
2019-06-25T06:37:08.641Z,29.90
2019-06-25T06:39:40.073Z,29.80
2019-06-25T06:42:15.562Z,29.20
2019-06-25T06:44:43.949Z,29.50
2019-06-25T06:47:15.186Z,30.40
2019-06-25T06:49:45.434Z,31.10
2019-06-25T06:52:15.146Z,31.60
2019-06-25T06:54:47.266Z,32.30
2019-06-25T06:57:15.797Z,32.70
2019-06-25T06:59:44.199Z,32.40
2019-06-25T07:02:14.288Z,32.30
2019-06-25T07:04:45.722Z,32.50
2019-06-25T07:07:16.021Z,32.40
2019-06-25T07:09:48.665Z,32.90
2019-06-25T07:12:17.314Z,33.00
2019-06-25T07:14:46.006Z,33.00
2019-06-25T07:17:19.801Z,32.80
2019-06-25T07:19:50.862Z,32.90
2019-06-25T07:22:19.317Z,32.80
2019-06-25T07:24:50.408Z,32.50
2019-06-25T07:27:20.474Z,32.30
2019-06-25T07:29:49.430Z,32.50
2019-06-25T07:32:20.410Z,33.00
2019-06-25T07:34:51.538Z,33.40
2019-06-25T07:37:21.880Z,33.50
2019-06-25T07:39:50.942Z,33.40
2019-06-25T07:42:19.491Z,33.70
2019-06-25T07:44:51.054Z,33.80
2019-06-25T07:47:22.886Z,33.20
2019-06-25T07:49:53.168Z,33.10
2019-06-25T07:52:23.127Z,32.70
2019-06-25T07:54:53.461Z,33.00
2019-06-25T07:57:25.882Z,32.80
2019-06-25T07:59:57.153Z,32.70
2019-06-25T08:02:25.606Z,33.00
2019-06-25T08:04:56.658Z,33.30
2019-06-25T08:07:31.159Z,33.90
2019-06-25T08:10:00.370Z,34.20
2019-06-25T08:12:31.594Z,34.40
2019-06-25T08:14:59.990Z,34.60
2019-06-25T08:17:28.406Z,34.60
2019-06-25T08:20:03.083Z,34.90
2019-06-25T08:22:34.359Z,35.50
2019-06-25T08:25:05.813Z,35.90
2019-06-25T08:27:38.594Z,34.90
2019-06-25T08:30:09.420Z,34.50
2019-06-25T08:32:38.040Z,34.20
2019-06-25T08:35:22.582Z,34.40
2019-06-25T08:37:59.051Z,34.40
2019-06-25T08:40:27.437Z,34.20
2019-06-25T08:42:56.060Z,34.50
2019-06-25T08:45:30.498Z,34.80
2019-06-25T08:48:01.850Z,35.00
2019-06-25T08:50:33.164Z,35.20
2019-06-25T08:53:09.114Z,35.30
2019-06-25T08:55:40.473Z,35.30
2019-06-25T08:58:09.869Z,35.00
2019-06-25T09:00:40.754Z,34.90
2019-06-25T09:03:15.436Z,35.50
2019-06-25T09:05:47.225Z,35.60
2019-06-25T09:08:15.915Z,36.00
2019-06-25T09:10:44.299Z,36.00
2019-06-25T09:13:13.195Z,35.40
2019-06-25T09:15:41.577Z,35.20
2019-06-25T09:18:11.539Z,35.50
2019-06-25T09:20:44.299Z,36.00
2019-06-25T09:23:17.892Z,35.80
2019-06-25T09:25:47.915Z,35.60
2019-06-25T09:28:17.954Z,35.70
2019-06-25T09:30:48.909Z,36.00
2019-06-25T09:33:19.732Z,35.80
2019-06-25T09:35:51.271Z,36.10
2019-06-25T09:38:19.746Z,36.90
2019-06-25T09:40:55.285Z,36.90
2019-06-25T09:43:25.417Z,35.50
2019-06-25T09:45:55.877Z,35.30
2019-06-25T09:48:27.466Z,35.60
2019-06-25T09:50:58.629Z,36.50
2019-06-25T09:53:29.988Z,37.10
2019-06-25T09:56:01.407Z,37.40
2019-06-25T09:58:32.760Z,37.40
2019-06-25T10:01:03.640Z,37.20
2019-06-25T10:03:35.433Z,37.20
2019-06-25T10:06:06.555Z,37.50
2019-06-25T10:08:37.700Z,37.50
2019-06-25T10:11:06.768Z,37.40
2019-06-25T10:13:36.149Z,37.10
2019-06-25T10:16:06.327Z,36.90
2019-06-25T10:18:44.411Z,37.30
2019-06-25T10:21:09.872Z,37.70
2019-06-25T10:23:38.502Z,37.60
2019-06-25T10:26:06.962Z,37.90
2019-06-25T10:28:39.562Z,37.80
2019-06-25T10:31:08.742Z,38.00
2019-06-25T10:33:42.571Z,38.60
2019-06-25T10:36:14.180Z,38.20
2019-06-25T10:38:45.962Z,38.50
2019-06-25T10:41:17.314Z,38.70
2019-06-25T10:43:45.697Z,38.90
2019-06-25T10:46:14.095Z,38.80
2019-06-25T10:48:42.997Z,39.00
2019-06-25T10:51:15.630Z,39.20
2019-06-25T10:53:45.052Z,38.70
2019-06-25T10:56:13.679Z,37.80
2019-06-25T10:58:43.026Z,37.80
2019-06-25T11:01:11.723Z,38.10
2019-06-25T11:03:40.104Z,38.00
2019-06-25T11:06:14.475Z,37.40
2019-06-25T11:08:43.801Z,36.70
2019-06-25T11:11:20.848Z,36.60
2019-06-25T11:14:04.019Z,36.60
2019-06-25T11:16:21.799Z,36.30
2019-06-25T11:18:50.270Z,36.30
2019-06-25T11:21:23.789Z,36.60
2019-06-25T11:23:53.343Z,36.50
2019-06-25T11:26:25.834Z,36.20
2019-06-25T11:28:58.447Z,36.50
2019-06-25T11:31:26.906Z,36.40
2019-06-25T11:33:58.582Z,36.20
2019-06-25T11:36:33.846Z,36.50
2019-06-25T11:39:05.477Z,36.10
2019-06-25T11:41:36.824Z,36.30
2019-06-25T11:44:09.092Z,36.80
2019-06-25T11:46:37.479Z,36.60
2019-06-25T11:49:05.885Z,36.60
2019-06-25T11:51:34.513Z,36.60
2019-06-25T11:54:05.882Z,36.50
2019-06-25T11:56:36.734Z,36.20
2019-06-25T11:59:06.676Z,36.20
2019-06-25T12:01:38.470Z,36.60
2019-06-25T12:04:08.897Z,36.70
2019-06-25T12:06:53.531Z,36.70
2019-06-25T12:09:12.130Z,36.80
2019-06-25T12:11:42.057Z,36.90
2019-06-25T12:14:16.329Z,36.70
2019-06-25T12:16:47.425Z,36.40
2019-06-25T12:19:20.887Z,36.20
2019-06-25T12:21:50.677Z,36.30
2019-06-25T12:24:21.979Z,36.00
2019-06-25T12:26:56.411Z,35.60
2019-06-25T12:29:26.657Z,35.30
2019-06-25T12:31:56.046Z,35.40
2019-06-25T12:34:24.686Z,35.40
2019-06-25T12:37:08.318Z,35.40
2019-06-25T12:39:23.458Z,35.50
2019-06-25T12:41:57.773Z,35.60
2019-06-25T12:44:26.163Z,35.60
2019-06-25T12:47:02.513Z,36.00
2019-06-25T12:49:30.309Z,36.10
2019-06-25T12:52:03.739Z,36.10
2019-06-25T12:54:32.100Z,36.20
2019-06-25T12:57:03.157Z,36.20
2019-06-25T12:59:34.240Z,35.90
2019-06-25T13:02:08.645Z,36.00
2019-06-25T13:04:38.182Z,35.70
2019-06-25T13:07:25.114Z,35.60
2019-06-25T13:09:44.155Z,35.50
2019-06-25T13:12:17.128Z,35.60
2019-06-25T13:14:45.758Z,35.90
2019-06-25T13:17:15.705Z,36.20
2019-06-25T13:19:44.113Z,36.20
2019-06-25T13:22:15.265Z,36.30
2019-06-25T13:24:51.108Z,36.50
2019-06-25T13:27:21.516Z,36.60
2019-06-25T13:29:52.882Z,36.30
2019-06-25T13:32:24.418Z,35.90
2019-06-25T13:34:55.459Z,36.00
2019-06-25T13:37:41.778Z,36.10
2019-06-25T13:40:04.078Z,36.40
2019-06-25T13:42:35.595Z,36.60
2019-06-25T13:45:07.066Z,37.30
2019-06-25T13:47:35.488Z,37.80
2019-06-25T13:50:07.261Z,37.70
2019-06-25T13:52:39.951Z,37.60
2019-06-25T13:55:11.150Z,37.70
2019-06-25T13:57:49.206Z,37.80
2019-06-25T14:00:15.784Z,37.80
2019-06-25T14:02:49.755Z,37.80
2019-06-25T14:05:24.025Z,37.80
2019-06-25T14:07:59.414Z,38.00
2019-06-25T14:10:27.216Z,37.60
2019-06-25T14:13:01.519Z,37.50
2019-06-25T14:15:29.007Z,37.50
2019-06-25T14:18:00.298Z,37.50
2019-06-25T14:20:28.703Z,37.70
2019-06-25T14:22:57.101Z,38.50
2019-06-25T14:25:27.982Z,38.90
2019-06-25T14:27:59.321Z,39.40
2019-06-25T14:30:27.855Z,39.90
2019-06-25T14:33:00.107Z,39.80
2019-06-25T14:35:28.566Z,40.10
2019-06-25T14:38:14.398Z,39.60
2019-06-25T14:40:32.726Z,39.00
2019-06-25T14:43:04.168Z,38.90
2019-06-25T14:45:38.274Z,39.60
2019-06-25T14:48:06.679Z,40.30
2019-06-25T14:50:38.054Z,40.60
2019-06-25T14:53:09.530Z,41.30
2019-06-25T14:55:41.081Z,40.80
2019-06-25T14:58:12.985Z,40.10
2019-06-25T15:00:44.304Z,39.60
2019-06-25T15:03:14.334Z,39.80
2019-06-25T15:05:46.742Z,39.60
2019-06-25T15:08:29.938Z,39.80
2019-06-25T15:10:45.818Z,39.40
2019-06-25T15:13:17.162Z,39.30
2019-06-25T15:15:45.873Z,39.30
2019-06-25T15:18:14.255Z,40.00
2019-06-25T15:20:45.983Z,40.20
2019-06-25T15:23:16.842Z,40.30
2019-06-25T15:25:46.141Z,40.50
2019-06-25T15:28:20.728Z,40.20
2019-06-25T15:30:49.117Z,40.50
2019-06-25T15:33:20.501Z,40.50
2019-06-25T15:35:51.762Z,40.30
2019-06-25T15:38:24.420Z,40.50
2019-06-25T15:41:01.878Z,40.50
2019-06-25T15:43:34.575Z,40.20
2019-06-25T15:46:04.468Z,40.20
2019-06-25T15:48:32.854Z,40.50
2019-06-25T15:51:01.284Z,40.50
2019-06-25T15:53:32.542Z,40.80
2019-06-25T15:56:03.853Z,40.80
2019-06-25T15:58:34.750Z,41.20
2019-06-25T16:01:03.123Z,41.00
2019-06-25T16:03:36.904Z,40.80
2019-06-25T16:06:08.263Z,40.60
2019-06-25T16:08:36.651Z,41.00
2019-06-25T16:11:07.938Z,41.30
2019-06-25T16:13:39.105Z,40.80
2019-06-25T16:16:10.406Z,40.30
2019-06-25T16:18:41.765Z,39.90
2019-06-25T16:21:15.871Z,39.80
2019-06-25T16:23:47.888Z,39.50
2019-06-25T16:26:20.027Z,39.30
2019-06-25T16:28:54.443Z,39.40
2019-06-25T16:31:26.616Z,39.50
2019-06-25T16:33:57.879Z,38.90
2019-06-25T16:36:28.970Z,38.70
2019-06-25T16:38:57.362Z,38.60
2019-06-25T16:41:31.967Z,37.90
2019-06-25T16:44:01.763Z,37.20
2019-06-25T16:46:31.779Z,36.90
2019-06-25T16:49:00.167Z,36.40
2019-06-25T16:51:36.281Z,35.80
2019-06-25T16:54:18.478Z,35.50
2019-06-25T16:56:46.861Z,35.00
2019-06-25T16:59:17.933Z,34.70
2019-06-25T17:01:49.237Z,34.50
2019-06-25T17:04:17.630Z,34.30
2019-06-25T17:06:47.669Z,34.10
2019-06-25T17:09:33.959Z,34.00
2019-06-25T17:11:51.939Z,34.00
2019-06-25T17:14:26.714Z,34.00
2019-06-25T17:16:55.115Z,33.90
2019-06-25T17:19:25.134Z,33.80
2019-06-25T17:21:53.534Z,33.80
2019-06-25T17:24:25.282Z,33.70
2019-06-25T17:26:58.514Z,33.70
2019-06-25T17:29:26.901Z,33.50
2019-06-25T17:31:55.293Z,33.40
2019-06-25T17:34:26.408Z,33.30
2019-06-25T17:36:58.173Z,33.30
2019-06-25T17:39:30.061Z,33.20
2019-06-25T17:42:00.004Z,33.10
2019-06-25T17:44:31.466Z,33.10
2019-06-25T17:46:59.865Z,33.00
2019-06-25T17:49:31.014Z,33.00
2019-06-25T17:52:07.862Z,32.90
2019-06-25T17:54:36.265Z,32.70
2019-06-25T17:57:07.381Z,32.60
2019-06-25T17:59:35.782Z,32.50
2019-06-25T18:02:06.266Z,32.30
2019-06-25T18:04:37.327Z,32.20
2019-06-25T18:07:05.975Z,32.00
2019-06-25T18:09:40.371Z,31.80
2019-06-25T18:12:05.701Z,31.60
2019-06-25T18:14:34.086Z,31.50
2019-06-25T18:17:05.314Z,31.40
2019-06-25T18:19:35.729Z,31.20
2019-06-25T18:22:04.877Z,31.10
2019-06-25T18:24:38.024Z,31.00
2019-06-25T18:27:11.605Z,30.90
2019-06-25T18:29:41.656Z,30.70
2019-06-25T18:32:11.590Z,30.70
2019-06-25T18:34:43.091Z,30.50
2019-06-25T18:37:11.483Z,30.40
2019-06-25T18:39:42.775Z,30.30
2019-06-25T18:42:14.047Z,30.20
2019-06-25T18:44:45.158Z,30.10
2019-06-25T18:47:16.281Z,30.00
2019-06-25T18:49:46.218Z,29.90
2019-06-25T18:52:17.906Z,29.80
2019-06-25T18:54:46.306Z,29.80
2019-06-25T18:57:17.867Z,29.60
2019-06-25T18:59:46.269Z,29.50
2019-06-25T19:02:17.713Z,29.40
2019-06-25T19:04:46.105Z,29.30
2019-06-25T19:07:17.286Z,29.10
2019-06-25T19:09:45.689Z,29.00
2019-06-25T19:12:17.152Z,28.80
2019-06-25T19:14:45.790Z,28.80
2019-06-25T19:17:19.901Z,28.60
2019-06-25T19:19:48.317Z,28.50
2019-06-25T19:22:16.709Z,28.40
2019-06-25T19:24:45.637Z,28.20
2019-06-25T19:27:16.919Z,28.10
2019-06-25T19:29:49.366Z,27.90
2019-06-25T19:32:15.435Z,27.80
2019-06-25T19:34:44.098Z,27.60
2019-06-25T19:37:18.112Z,27.50
2019-06-25T19:39:46.545Z,27.30
2019-06-25T19:42:18.114Z,27.20
2019-06-25T19:44:48.922Z,27.00
2019-06-25T19:47:26.489Z,26.90
2019-06-25T19:49:54.881Z,26.80
2019-06-25T19:52:29.135Z,26.70
2019-06-25T19:55:00.486Z,26.60
2019-06-25T19:57:35.074Z,26.50
2019-06-25T20:00:07.546Z,26.40
2019-06-25T20:02:38.953Z,26.30
2019-06-25T20:05:10.592Z,26.30
2019-06-25T20:07:41.791Z,26.30
2019-06-25T20:10:12.630Z,26.20
2019-06-25T20:12:43.953Z,26.10
2019-06-25T20:15:15.626Z,26.10
2019-06-25T20:17:45.530Z,26.00
2019-06-25T20:20:17.150Z,25.90
2019-06-25T20:22:48.454Z,25.90
2019-06-25T20:25:21.198Z,25.90
2019-06-25T20:27:52.002Z,25.90
2019-06-25T20:30:23.097Z,25.90
2019-06-25T20:32:51.478Z,25.90
2019-06-25T20:35:19.876Z,25.80
2019-06-25T20:37:55.632Z,25.60
2019-06-25T20:40:24.028Z,25.50
2019-06-25T20:42:52.564Z,25.30
2019-06-25T20:45:21.990Z,25.10
2019-06-25T20:47:53.052Z,25.00
2019-06-25T20:50:22.688Z,25.00
2019-06-25T20:52:51.114Z,24.80
2019-06-25T20:55:19.550Z,24.70
2019-06-25T20:57:48.391Z,24.50
2019-06-25T21:00:18.638Z,24.40
2019-06-25T21:02:49.776Z,24.30
2019-06-25T21:05:19.713Z,24.30
2019-06-25T21:07:54.525Z,24.20
2019-06-25T21:10:22.937Z,24.20
2019-06-25T21:12:51.349Z,24.10
2019-06-25T21:15:25.837Z,24.00
2019-06-25T21:18:02.738Z,24.00
2019-06-25T21:20:32.783Z,23.90
2019-06-25T21:23:02.848Z,23.80
2019-06-25T21:25:34.417Z,23.60
2019-06-25T21:28:03.051Z,23.50
2019-06-25T21:30:33.090Z,23.40
2019-06-25T21:33:01.778Z,23.30
2019-06-25T21:35:31.443Z,23.20
2019-06-25T21:38:00.071Z,23.20
2019-06-25T21:40:32.996Z,23.10
2019-06-25T21:43:04.366Z,23.10
2019-06-25T21:45:35.538Z,23.00
2019-06-25T21:48:04.704Z,23.00
2019-06-25T21:50:33.342Z,23.00
2019-06-25T21:53:05.373Z,23.00
2019-06-25T21:55:33.769Z,22.90
2019-06-25T21:58:07.846Z,22.90
2019-06-25T22:00:39.528Z,22.80
2019-06-25T22:03:11.045Z,22.80
2019-06-25T22:05:39.674Z,22.80
2019-06-25T22:08:08.322Z,22.70
2019-06-25T22:10:37.630Z,22.70
2019-06-25T22:13:08.441Z,22.60
2019-06-25T22:15:37.838Z,22.60
2019-06-25T22:18:06.247Z,22.50
2019-06-25T22:20:34.710Z,22.50
2019-06-25T22:23:08.879Z,22.50
2019-06-25T22:25:37.264Z,22.50
2019-06-25T22:28:08.630Z,22.40
2019-06-25T22:30:39.832Z,22.30
2019-06-25T22:33:10.891Z,22.30
2019-06-25T22:35:39.297Z,22.20
2019-06-25T22:38:16.212Z,22.20
2019-06-25T22:40:47.527Z,22.20
2019-06-25T22:43:27.234Z,22.20
2019-06-25T22:46:00.124Z,22.20
2019-06-25T22:48:33.875Z,22.30
2019-06-25T22:51:02.416Z,22.30
2019-06-25T22:53:33.668Z,22.30
2019-06-25T22:56:07.878Z,22.20
2019-06-25T22:58:37.164Z,22.10
2019-06-25T23:01:05.559Z,22.00
2019-06-25T23:03:38.405Z,21.90
2019-06-25T23:06:09.922Z,21.80
2019-06-25T23:08:39.974Z,21.70
2019-06-25T23:11:11.313Z,21.60
2019-06-25T23:13:46.437Z,21.50
2019-06-25T23:16:14.844Z,21.30
2019-06-25T23:18:48.658Z,21.30
2019-06-25T23:21:18.602Z,21.20
2019-06-25T23:23:49.839Z,21.10
2019-06-25T23:26:18.226Z,21.00
2019-06-25T23:28:49.460Z,20.90
2019-06-25T23:31:17.881Z,20.80
2019-06-25T23:33:48.989Z,20.80
2019-06-25T23:36:23.845Z,20.60
2019-06-25T23:38:56.055Z,20.60
2019-06-25T23:41:32.537Z,20.50
2019-06-25T23:44:00.929Z,20.50
2019-06-25T23:46:30.505Z,20.40
2019-06-25T23:49:03.375Z,20.40
2019-06-25T23:51:33.425Z,20.50
2019-06-25T23:54:02.049Z,20.60
2019-06-25T23:56:33.172Z,20.50
2019-06-25T23:59:07.400Z,20.50
